HAZ3654 ZUCK-ZGGG
Flight info
| Callsign | HAZ3654 |
|---|---|
| Flight time | N/A |
| Altitude | 36100 |
| Route | VILUS1Z VILUS W180 BONSA/K0898S1130 W180 LIDMA W182 LAGEX G586 SJG B330 GYA GYA8 |
| Aircraft | B77W/H-SDE1E2E3FGHIJ2J3J4J5M1RWXY/LB1D1 |
Departure
| Time | 2026-04-21 03:09 |
|---|---|
| Airport | Chongqing Jiangbei International Airport (ZUCK) |
Arrival
| Time | N/A |
|---|---|
| Airport | Guangzhou Baiyun International Airport (ZGGG) |
| Time | Latitude | Longitude | Altitude | Speed | Heading |
|---|---|---|---|---|---|
| 2026-04-21 02:51 | 29.71978 | 106.65061 | 1377 ft | 0 kts | 174° |
| 2026-04-21 02:59 | 29.71983 | 106.65060 | 1377 ft | 3 kts | 168° |
| 2026-04-21 02:59 | 29.71998 | 106.65054 | 1377 ft | 2 kts | 156° |
| 2026-04-21 02:59 | 29.72012 | 106.65048 | 1377 ft | 2 kts | 158° |
| 2026-04-21 03:00 | 29.72026 | 106.65041 | 1377 ft | 2 kts | 160° |
| 2026-04-21 03:00 | 29.72040 | 106.65035 | 1377 ft | 1 kts | 160° |
| 2026-04-21 03:00 | 29.72054 | 106.65029 | 1377 ft | 2 kts | 159° |
| 2026-04-21 03:00 | 29.72068 | 106.65023 | 1377 ft | 2 kts | 159° |
| 2026-04-21 03:01 | 29.72082 | 106.65018 | 1377 ft | 2 kts | 159° |
| 2026-04-21 03:01 | 29.72096 | 106.65012 | 1377 ft | 2 kts | 160° |
| 2026-04-21 03:01 | 29.72111 | 106.65009 | 1377 ft | 1 kts | 194° |
| 2026-04-21 03:01 | 29.72115 | 106.65010 | 1377 ft | 0 kts | 197° |
| 2026-04-21 03:03 | 29.72108 | 106.65008 | 1377 ft | 1 kts | 201° |
| 2026-04-21 03:03 | 29.72096 | 106.64999 | 1377 ft | 2 kts | 218° |
| 2026-04-21 03:03 | 29.72080 | 106.64963 | 1377 ft | 8 kts | 268° |
| 2026-04-21 03:04 | 29.72108 | 106.64883 | 1377 ft | 12 kts | 306° |
| 2026-04-21 03:04 | 29.72208 | 106.64873 | 1377 ft | 18 kts | 16° |
| 2026-04-21 03:04 | 29.72338 | 106.64915 | 1377 ft | 18 kts | 15° |
| 2026-04-21 03:04 | 29.72457 | 106.64956 | 1377 ft | 16 kts | 17° |
| 2026-04-21 03:05 | 29.72564 | 106.64993 | 1377 ft | 15 kts | 17° |
| 2026-04-21 03:05 | 29.72663 | 106.65030 | 1377 ft | 14 kts | 18° |
| 2026-04-21 03:05 | 29.72754 | 106.65062 | 1377 ft | 13 kts | 17° |
| 2026-04-21 03:05 | 29.72854 | 106.65095 | 1377 ft | 16 kts | 16° |
| 2026-04-21 03:06 | 29.72961 | 106.65132 | 1377 ft | 15 kts | 17° |
| 2026-04-21 03:06 | 29.73069 | 106.65169 | 1377 ft | 17 kts | 16° |
| 2026-04-21 03:06 | 29.73180 | 106.65205 | 1377 ft | 15 kts | 16° |
| 2026-04-21 03:06 | 29.73281 | 106.65240 | 1377 ft | 14 kts | 17° |
| 2026-04-21 03:07 | 29.73374 | 106.65273 | 1377 ft | 13 kts | 17° |
| 2026-04-21 03:07 | 29.73458 | 106.65303 | 1377 ft | 12 kts | 17° |
| 2026-04-21 03:07 | 29.73525 | 106.65277 | 1377 ft | 10 kts | 301° |
| 2026-04-21 03:07 | 29.73551 | 106.65199 | 1377 ft | 9 kts | 287° |
| 2026-04-21 03:08 | 29.73542 | 106.65134 | 1377 ft | 7 kts | 218° |
| 2026-04-21 03:08 | 29.73486 | 106.65112 | 1377 ft | 12 kts | 196° |
| 2026-04-21 03:08 | 29.73280 | 106.65040 | 1377 ft | 60 kts | 197° |
| 2026-04-21 03:08 | 29.72647 | 106.64819 | 1377 ft | 126 kts | 198° |
| 2026-04-21 03:09 | 29.71603 | 106.64453 | 1382 ft | 180 kts | 199° |
| 2026-04-21 03:09 | 29.70330 | 106.64037 | 1844 ft | 192 kts | 199° |
| 2026-04-21 03:09 | 29.69016 | 106.63570 | 2503 ft | 199 kts | 200° |
| 2026-04-21 03:09 | 29.67639 | 106.63081 | 2986 ft | 213 kts | 198° |
| 2026-04-21 03:10 | 29.66137 | 106.62563 | 3443 ft | 230 kts | 197° |
| 2026-04-21 03:10 | 29.64540 | 106.62015 | 4005 ft | 245 kts | 197° |
| 2026-04-21 03:10 | 29.62845 | 106.61433 | 4545 ft | 262 kts | 197° |
| 2026-04-21 03:10 | 29.61068 | 106.60822 | 5352 ft | 266 kts | 197° |
| 2026-04-21 03:11 | 29.59299 | 106.60214 | 6248 ft | 267 kts | 198° |
| 2026-04-21 03:11 | 29.57492 | 106.59592 | 7104 ft | 269 kts | 198° |
| 2026-04-21 03:11 | 29.55705 | 106.58942 | 7971 ft | 270 kts | 199° |
| 2026-04-21 03:11 | 29.53917 | 106.58266 | 8816 ft | 271 kts | 200° |
| 2026-04-21 03:12 | 29.52105 | 106.57585 | 9664 ft | 271 kts | 200° |
| 2026-04-21 03:12 | 29.50285 | 106.56905 | 10385 ft | 276 kts | 200° |
| 2026-04-21 03:12 | 29.48311 | 106.56266 | 10784 ft | 296 kts | 194° |
| 2026-04-21 03:12 | 29.46174 | 106.55970 | 11146 ft | 318 kts | 185° |
| 2026-04-21 03:13 | 29.43865 | 106.56110 | 11500 ft | 339 kts | 175° |
| 2026-04-21 03:13 | 29.41477 | 106.56772 | 11852 ft | 361 kts | 164° |
| 2026-04-21 03:13 | 29.39088 | 106.58047 | 12195 ft | 383 kts | 152° |
| 2026-04-21 03:13 | 29.36910 | 106.59954 | 12700 ft | 398 kts | 139° |
| 2026-04-21 03:14 | 29.35072 | 106.62374 | 13526 ft | 403 kts | 130° |
| 2026-04-21 03:14 | 29.33321 | 106.64879 | 14363 ft | 405 kts | 131° |
| 2026-04-21 03:14 | 29.31499 | 106.67409 | 15101 ft | 410 kts | 132° |
| 2026-04-21 03:14 | 29.29618 | 106.69950 | 15703 ft | 419 kts | 133° |
| 2026-04-21 03:15 | 29.27659 | 106.72548 | 16400 ft | 425 kts | 133° |
| 2026-04-21 03:15 | 29.25684 | 106.75135 | 17088 ft | 429 kts | 133° |
| 2026-04-21 03:15 | 29.23686 | 106.77732 | 17794 ft | 433 kts | 134° |
| 2026-04-21 03:15 | 29.21672 | 106.80335 | 18433 ft | 438 kts | 134° |
| 2026-04-21 03:16 | 29.19658 | 106.82928 | 19038 ft | 443 kts | 134° |
| 2026-04-21 03:16 | 29.17604 | 106.85564 | 19680 ft | 447 kts | 134° |
| 2026-04-21 03:16 | 29.15524 | 106.88225 | 20243 ft | 453 kts | 134° |
| 2026-04-21 03:16 | 29.13243 | 106.90697 | 20871 ft | 453 kts | 144° |
| 2026-04-21 03:17 | 29.10571 | 106.92731 | 21521 ft | 453 kts | 154° |
| 2026-04-21 03:17 | 29.07675 | 106.94199 | 22100 ft | 454 kts | 165° |
| 2026-04-21 03:17 | 29.04594 | 106.95089 | 22656 ft | 454 kts | 174° |
| 2026-04-21 03:17 | 29.01390 | 106.95386 | 23200 ft | 455 kts | 183° |
| 2026-04-21 03:18 | 28.98234 | 106.95406 | 23761 ft | 457 kts | 184° |
| 2026-04-21 03:18 | 28.95102 | 106.95396 | 24334 ft | 460 kts | 184° |
| 2026-04-21 03:18 | 28.91901 | 106.95377 | 24855 ft | 465 kts | 184° |
| 2026-04-21 03:18 | 28.88685 | 106.95351 | 25357 ft | 470 kts | 185° |
| 2026-04-21 03:19 | 28.85376 | 106.95320 | 25902 ft | 474 kts | 185° |
| 2026-04-21 03:19 | 28.82077 | 106.95287 | 26485 ft | 477 kts | 185° |
| 2026-04-21 03:19 | 28.78763 | 106.95252 | 27064 ft | 480 kts | 185° |
| 2026-04-21 03:19 | 28.75491 | 106.95216 | 27606 ft | 484 kts | 185° |
| 2026-04-21 03:20 | 28.72066 | 106.95178 | 28135 ft | 489 kts | 185° |
| 2026-04-21 03:20 | 28.68704 | 106.95139 | 28600 ft | 494 kts | 185° |
| 2026-04-21 03:20 | 28.65240 | 106.95099 | 29152 ft | 497 kts | 185° |
| 2026-04-21 03:20 | 28.61768 | 106.95059 | 29833 ft | 498 kts | 186° |
| 2026-04-21 03:21 | 28.58350 | 106.95020 | 30524 ft | 498 kts | 186° |
| 2026-04-21 03:21 | 28.54918 | 106.94981 | 31217 ft | 497 kts | 186° |
| 2026-04-21 03:21 | 28.51463 | 106.94942 | 31949 ft | 494 kts | 187° |
| 2026-04-21 03:21 | 28.48035 | 106.94903 | 32582 ft | 493 kts | 187° |
| 2026-04-21 03:22 | 28.44620 | 106.94863 | 33135 ft | 493 kts | 188° |
| 2026-04-21 03:22 | 28.41226 | 106.94823 | 33679 ft | 492 kts | 188° |
| 2026-04-21 03:22 | 28.37816 | 106.94784 | 34188 ft | 492 kts | 188° |
| 2026-04-21 03:22 | 28.34380 | 106.94743 | 34696 ft | 492 kts | 188° |
| 2026-04-21 03:23 | 28.31028 | 106.94704 | 35226 ft | 491 kts | 189° |
| 2026-04-21 03:23 | 28.27584 | 106.94665 | 35744 ft | 490 kts | 189° |
| 2026-04-21 03:23 | 28.24126 | 106.94624 | 36061 ft | 492 kts | 189° |
| 2026-04-21 03:23 | 28.20677 | 106.94697 | 36066 ft | 496 kts | 186° |
| 2026-04-21 03:24 | 28.13786 | 106.95125 | 36061 ft | 495 kts | 186° |
| 2026-04-21 03:24 | 28.06787 | 106.95545 | 36054 ft | 497 kts | 186° |
| 2026-04-21 03:25 | 27.99859 | 106.95934 | 36046 ft | 497 kts | 186° |
| 2026-04-21 03:25 | 27.92944 | 106.96309 | 36046 ft | 494 kts | 186° |
| 2026-04-21 03:26 | 27.86011 | 106.96678 | 36044 ft | 495 kts | 186° |
| 2026-04-21 03:26 | 27.79131 | 106.97042 | 36048 ft | 496 kts | 186° |
| 2026-04-21 03:27 | 27.72140 | 106.97412 | 36055 ft | 495 kts | 186° |
| 2026-04-21 03:27 | 27.65199 | 106.97777 | 36046 ft | 496 kts | 186° |
| 2026-04-21 03:28 | 27.58291 | 106.98140 | 36039 ft | 496 kts | 186° |
| 2026-04-21 03:28 | 27.51322 | 106.98506 | 36026 ft | 496 kts | 186° |
| 2026-04-21 03:29 | 27.44384 | 106.98872 | 36029 ft | 497 kts | 186° |
| 2026-04-21 03:29 | 27.37432 | 106.99248 | 36029 ft | 499 kts | 186° |
| 2026-04-21 03:30 | 27.30454 | 106.99626 | 36028 ft | 499 kts | 186° |
| 2026-04-21 03:30 | 27.23481 | 107.00003 | 36028 ft | 496 kts | 186° |
| 2026-04-21 03:31 | 27.16600 | 107.00373 | 36034 ft | 498 kts | 186° |
| 2026-04-21 03:31 | 27.09773 | 107.00742 | 36031 ft | 500 kts | 185° |
| 2026-04-21 03:32 | 27.02866 | 107.02267 | 36016 ft | 512 kts | 167° |
| 2026-04-21 03:32 | 26.99660 | 107.03834 | 36025 ft | 524 kts | 158° |
| 2026-04-21 03:32 | 26.96595 | 107.05933 | 36020 ft | 534 kts | 150° |